createdAt,value
2018-05-15T07:58:37.950Z,37.38
2018-05-15T07:59:37.657Z,36.80
2018-05-15T08:01:30.733Z,36.22
2018-05-15T08:02:30.753Z,36.51
2018-05-15T08:04:23.955Z,36.70
2018-05-15T08:05:23.872Z,36.51
2018-05-15T08:07:16.981Z,36.02
2018-05-15T08:08:17.000Z,36.12
2018-05-15T08:10:10.078Z,35.73
2018-05-15T08:11:10.092Z,35.44
2018-05-15T08:13:03.184Z,34.96
2018-05-15T08:14:03.299Z,35.15
2018-05-15T08:15:03.226Z,34.86
2018-05-15T08:16:03.250Z,34.67
2018-05-15T08:17:03.275Z,34.28
2018-05-15T08:18:03.300Z,34.38
2018-05-15T08:19:03.327Z,34.28
2018-05-15T08:20:03.347Z,34.09
2018-05-15T08:21:03.372Z,34.77
2018-05-15T08:22:03.395Z,35.15
2018-05-15T08:23:03.425Z,35.05
2018-05-15T08:24:03.448Z,34.86
2018-05-15T08:25:03.475Z,35.64
2018-05-15T08:26:03.498Z,35.25
2018-05-15T08:27:03.534Z,34.96
2018-05-15T08:28:03.552Z,35.05
2018-05-15T08:29:03.574Z,35.35
2018-05-15T08:30:03.600Z,35.44
2018-05-15T08:31:03.628Z,35.25
2018-05-15T08:32:03.685Z,35.05
2018-05-15T08:33:03.678Z,35.15
2018-05-15T08:34:03.703Z,35.25
2018-05-15T08:35:03.734Z,35.25
2018-05-15T08:36:03.749Z,35.54
2018-05-15T08:37:03.777Z,36.12
2018-05-15T08:38:03.832Z,35.75
2018-05-15T08:39:03.833Z,36.12
2018-05-15T08:40:03.851Z,36.02
2018-05-15T08:41:03.880Z,36.33
2018-05-15T08:42:03.907Z,36.43
2018-05-15T08:43:03.943Z,36.12
2018-05-15T08:44:03.955Z,36.33
2018-05-15T08:45:03.990Z,36.14
2018-05-15T08:46:04.010Z,36.14
2018-05-15T08:47:04.034Z,35.93
2018-05-15T08:48:04.059Z,35.44
2018-05-15T08:49:04.088Z,35.73
2018-05-15T08:50:04.113Z,35.44
2018-05-15T08:51:04.137Z,35.44
2018-05-15T08:52:04.169Z,36.24
2018-05-15T08:53:04.189Z,35.75
2018-05-15T08:54:04.230Z,35.73
2018-05-15T08:55:04.233Z,35.66
2018-05-15T08:56:04.293Z,36.41
2018-05-15T08:57:04.297Z,36.12
2018-05-15T08:58:04.336Z,36.02
2018-05-15T08:59:04.343Z,36.52
2018-05-15T09:00:04.369Z,36.80
2018-05-15T09:01:04.399Z,36.62
2018-05-15T09:02:04.428Z,36.41
2018-05-15T09:03:04.446Z,36.24
2018-05-15T09:04:04.471Z,36.02
2018-05-15T09:05:04.510Z,36.12
2018-05-15T09:06:04.540Z,35.25
2018-05-15T09:07:04.549Z,35.36
2018-05-15T09:08:04.596Z,34.86
2018-05-15T09:09:04.600Z,35.17
2018-05-15T09:10:04.654Z,34.77
2018-05-15T09:11:04.657Z,34.20
2018-05-15T09:12:04.677Z,33.81
2018-05-15T09:13:04.711Z,33.33
2018-05-15T09:14:04.739Z,33.72
2018-05-15T09:15:04.769Z,34.20
2018-05-15T09:16:04.780Z,33.80
2018-05-15T09:17:04.809Z,33.80
2018-05-15T09:18:04.842Z,33.99
2018-05-15T09:19:04.865Z,33.80
2018-05-15T09:20:04.884Z,34.19
2018-05-15T09:21:04.922Z,34.09
2018-05-15T09:22:04.934Z,33.89
2018-05-15T09:23:04.968Z,33.89
2018-05-15T09:24:04.987Z,33.99
2018-05-15T09:25:05.022Z,33.99
2018-05-15T09:26:05.043Z,33.60
2018-05-15T09:27:05.069Z,32.54
2018-05-15T09:28:05.093Z,32.92
2018-05-15T09:29:05.117Z,33.22
2018-05-15T09:30:05.145Z,33.80
2018-05-15T09:31:05.172Z,33.02
2018-05-15T09:32:05.196Z,32.34
2018-05-15T09:33:05.272Z,32.34
2018-05-15T09:34:05.248Z,32.06
2018-05-15T09:35:05.281Z,31.67
2018-05-15T09:36:05.297Z,31.37
2018-05-15T09:37:05.354Z,30.79
2018-05-15T09:38:05.348Z,29.92
2018-05-15T09:39:05.381Z,29.44
2018-05-15T09:40:05.401Z,28.86
2018-05-15T09:41:05.431Z,28.96
2018-05-15T09:42:05.452Z,28.66
2018-05-15T09:43:05.476Z,28.66
2018-05-15T09:44:05.504Z,29.05
2018-05-15T09:45:05.529Z,28.96
2018-05-15T09:46:05.557Z,28.18
2018-05-15T09:47:05.607Z,27.89
2018-05-15T09:48:05.611Z,27.60
2018-05-15T09:49:05.632Z,27.60
2018-05-15T09:50:05.659Z,27.60
2018-05-15T09:51:05.699Z,27.50
2018-05-15T09:52:05.709Z,27.21
2018-05-15T09:53:05.736Z,27.21
2018-05-15T09:54:05.760Z,27.50
2018-05-15T09:55:05.786Z,27.31
2018-05-15T09:56:05.816Z,27.40
2018-05-15T09:57:05.835Z,27.01
2018-05-15T09:58:05.864Z,26.63
2018-05-15T09:59:05.891Z,26.53
2018-05-15T10:00:05.918Z,26.63
2018-05-15T10:01:06.605Z,26.63
2018-05-15T10:02:05.973Z,26.63
2018-05-15T10:03:05.993Z,26.53
2018-05-15T10:04:06.028Z,26.63
2018-05-15T10:05:06.046Z,26.43
2018-05-15T10:06:06.068Z,26.73
2018-05-15T10:07:06.101Z,27.60
2018-05-15T10:08:06.213Z,27.21
2018-05-15T10:09:06.190Z,27.89
2018-05-15T10:10:06.206Z,27.60
2018-05-15T10:11:06.216Z,28.08
2018-05-15T10:12:06.307Z,28.56
2018-05-15T10:13:06.252Z,27.79
2018-05-15T10:14:06.328Z,27.89
2018-05-15T10:15:06.306Z,28.38
2018-05-15T10:16:06.343Z,28.86
2018-05-15T10:17:07.127Z,27.98
2018-05-15T10:18:06.399Z,28.76
2018-05-15T10:19:06.435Z,28.38
2018-05-15T10:20:06.573Z,28.38
2018-05-15T10:21:06.455Z,28.38
2018-05-15T10:22:06.482Z,28.08
2018-05-15T10:23:06.541Z,28.76
2018-05-15T10:24:06.532Z,28.38
2018-05-15T10:25:06.559Z,28.18
2018-05-15T10:26:06.584Z,28.28
2018-05-15T10:27:06.603Z,28.08
2018-05-15T10:28:07.647Z,27.89
2018-05-15T10:29:06.676Z,27.89
2018-05-15T10:30:06.683Z,28.18
2018-05-15T10:31:06.759Z,28.18
2018-05-15T10:32:06.775Z,27.79
2018-05-15T10:33:06.763Z,28.28
2018-05-15T10:34:06.783Z,27.89
2018-05-15T10:35:06.814Z,28.38
2018-05-15T10:36:06.835Z,28.18
